Time;durP1;ratioP1;P1;durP2;ratioP2;P2;SDS_P1;SDS_P2;PMS_P1;PMS_P2;Temp;Humidity;BMP_temperature;BMP_pressure;BME280_temperature;BME280_humidity;BME280_pressure;Samples;Min_cycle;Max_cycle;Signal;HPM_P1;HPM_P2
2023/01/24 00:00:42;;;;;;;0.75;0.75;;;;;;;-4.30;85.76;101471.03;5078045;28;20044;-82
2023/01/24 00:03:12;;;;;;;0.98;0.98;;;;;;;-4.29;85.57;101475.38;5073264;28;20072;-82
2023/01/24 00:05:40;;;;;;;0.85;0.85;;;;;;;-4.30;85.75;101473.66;5072969;28;20620;-82
2023/01/24 00:08:07;;;;;;;0.88;0.88;;;;;;;-4.33;85.65;101466.78;5072221;28;20078;-82
2023/01/24 00:10:36;;;;;;;0.70;0.70;;;;;;;-4.38;85.73;101468.84;5071870;28;20511;-82
2023/01/24 00:13:03;;;;;;;0.70;0.70;;;;;;;-4.38;86.00;101468.84;5072218;28;20052;-82
2023/01/24 00:15:30;;;;;;;0.80;0.80;;;;;;;-4.36;86.06;101461.69;5070367;28;20052;-81
2023/01/24 00:17:57;;;;;;;0.70;0.70;;;;;;;-4.37;86.15;101460.00;5087538;28;20159;-82
2023/01/24 00:20:25;;;;;;;0.85;0.85;;;;;;;-4.33;86.05;101458.03;5071872;28;20049;-82
2023/01/24 00:22:52;;;;;;;0.70;0.70;;;;;;;-4.35;85.92;101452.88;5071719;28;20071;-82
2023/01/24 00:25:19;;;;;;;0.60;0.60;;;;;;;-4.33;86.06;101450.97;5071613;28;20048;-81
2023/01/24 00:27:46;;;;;;;0.90;0.90;;;;;;;-4.31;85.87;101448.25;5071763;28;20083;-81
2023/01/24 00:30:13;;;;;;;0.80;0.80;;;;;;;-4.34;85.98;101453.72;5087114;28;20048;-81
2023/01/24 00:32:40;;;;;;;0.90;0.90;;;;;;;-4.45;86.06;101449.91;5071396;28;20048;-81
2023/01/24 00:35:08;;;;;;;0.70;0.70;;;;;;;-4.52;86.21;101451.19;5071461;28;20063;-80
2023/01/24 00:37:35;;;;;;;0.90;0.90;;;;;;;-4.53;86.47;101460.03;5071713;28;20052;-82
2023/01/24 00:40:02;;;;;;;0.90;0.90;;;;;;;-4.51;86.75;101458.16;5070235;28;20048;-81
2023/01/24 00:42:29;;;;;;;0.70;0.70;;;;;;;-4.49;86.61;101451.00;5071470;28;20071;-82
2023/01/24 00:44:57;;;;;;;1.00;1.00;;;;;;;-4.51;86.66;101459.94;5070445;28;20044;-81
2023/01/24 00:47:25;;;;;;;0.80;0.80;;;;;;;-4.57;86.83;101451.44;5069817;28;20075;-81
2023/01/24 00:49:52;;;;;;;0.90;0.90;;;;;;;-4.56;87.01;101454.91;5053308;28;20475;-82
2023/01/24 00:52:19;;;;;;;0.80;0.80;;;;;;;-4.58;87.13;101451.56;5082155;28;20048;-81
2023/01/24 00:54:47;;;;;;;0.80;0.80;;;;;;;-4.58;87.31;101443.66;5091299;28;20060;-81
2023/01/24 00:57:14;;;;;;;0.80;0.80;;;;;;;-4.56;87.33;101449.66;5089691;28;20133;-82
2023/01/24 00:59:42;;;;;;;0.70;0.70;;;;;;;-4.55;87.24;101440.81;5080750;28;20055;-82
2023/01/24 01:02:10;;;;;;;0.77;0.77;;;;;;;-4.54;87.27;101442.50;5070735;28;20403;-81
2023/01/24 01:04:42;;;;;;;0.80;0.80;;;;;;;-4.50;87.23;101443.22;5070988;28;20045;-81
2023/01/24 01:07:12;;;;;;;0.70;0.70;;;;;;;-4.47;86.81;101438.59;5049170;28;20049;-81
2023/01/24 01:09:40;;;;;;;1.00;1.00;;;;;;;-4.47;86.92;101438.59;5033662;28;20133;-81
2023/01/24 01:12:09;;;;;;;0.70;0.70;;;;;;;-4.47;87.09;101443.88;5033424;28;20067;-80
2023/01/24 01:14:36;;;;;;;1.00;1.00;;;;;;;-4.46;87.31;101440.28;5043251;28;20049;-82
2023/01/24 01:17:05;;;;;;;0.63;0.63;;;;;;;-4.46;87.19;101434.16;5053624;28;20053;-82
2023/01/24 01:19:32;;;;;;;0.85;0.85;;;;;;;-4.43;87.14;101431.34;5052731;28;20136;-81
2023/01/24 01:22:00;;;;;;;0.82;0.82;;;;;;;-4.42;86.99;101436.53;5036425;28;20060;-82
2023/01/24 01:24:28;;;;;;;0.80;0.80;;;;;;;-4.42;86.62;101428.63;5069093;28;20076;-82
2023/01/24 01:26:57;;;;;;;0.70;0.70;;;;;;;-4.42;86.91;101425.16;5035795;28;20068;-81
2023/01/24 01:29:24;;;;;;;0.73;0.73;;;;;;;-4.41;86.72;101422.41;5069107;28;20049;-81
2023/01/24 01:31:51;;;;;;;0.70;0.70;;;;;;;-4.40;86.61;101424.13;5070492;28;20068;-82
2023/01/24 01:34:19;;;;;;;0.90;0.90;;;;;;;-4.38;87.11;101419.63;5068897;28;20102;-81
2023/01/24 01:36:46;;;;;;;0.80;0.80;;;;;;;-4.39;86.85;101415.28;5070560;28;20052;-83
2023/01/24 01:39:13;;;;;;;1.05;1.05;;;;;;;-4.37;86.99;101418.66;5069962;28;20041;-82
2023/01/24 01:41:40;;;;;;;0.77;0.77;;;;;;;-4.41;86.78;101422.41;5070405;28;20049;-82
2023/01/24 01:44:37;;;;;;;0.63;0.63;;;;;;;-4.45;86.90;101413.00;5070725;28;20048;-82
2023/01/24 01:47:24;;;;;;;0.80;0.80;;;;;;;-4.40;86.79;101421.50;5069597;28;20059;-81
2023/01/24 01:50:09;;;;;;;0.70;0.70;;;;;;;-4.39;86.92;101422.34;5066007;28;20049;-82
2023/01/24 01:52:39;;;;;;;0.60;0.60;;;;;;;-4.44;86.89;101419.97;5050238;28;20072;-82
2023/01/24 01:55:18;;;;;;;0.80;0.80;;;;;;;-4.46;87.00;101413.06;5050358;28;20057;-82
2023/01/24 01:57:47;;;;;;;0.80;0.80;;;;;;;-4.49;87.04;101403.56;5050486;28;20450;-82
2023/01/24 02:00:20;;;;;;;0.73;0.73;;;;;;;-4.53;87.18;101415.25;5063893;28;20055;-81
2023/01/24 02:02:51;;;;;;;0.60;0.60;;;;;;;-4.57;87.42;101406.63;5086013;28;20143;-82
2023/01/24 02:05:20;;;;;;;0.93;0.93;;;;;;;-4.58;87.60;101409.38;5068734;28;20059;-81
2023/01/24 02:07:56;;;;;;;0.88;0.88;;;;;;;-4.53;87.89;101417.88;5068917;28;20048;-82
2023/01/24 02:10:24;;;;;;;0.60;0.60;;;;;;;-4.52;87.62;101408.16;5052669;28;20051;-81
2023/01/24 02:12:53;;;;;;;0.70;0.70;;;;;;;-4.52;87.89;101411.66;5069233;28;20045;-80
2023/01/24 02:18:10;;;;;;;0.70;0.70;;;;;;;-4.52;87.92;101418.72;5069245;28;20457;-81
2023/01/24 02:20:41;;;;;;;0.75;0.75;;;;;;;-4.43;87.92;101420.81;5070080;28;20052;-81
2023/01/24 02:23:11;;;;;;;0.70;0.70;;;;;;;-4.42;87.51;101422.50;5069799;28;20072;-82
2023/01/24 02:25:57;;;;;;;0.80;0.80;;;;;;;-4.40;87.63;101424.13;5051941;28;20056;-83
2023/01/24 02:28:26;;;;;;;0.63;0.63;;;;;;;-4.41;87.62;101414.50;5048372;28;20052;-80
2023/01/24 02:30:57;;;;;;;0.80;0.80;;;;;;;-4.38;87.51;101416.97;5049098;28;20146;-81
2023/01/24 02:33:24;;;;;;;0.82;0.82;;;;;;;-4.39;87.48;101406.50;5049097;28;20414;-82
2023/01/24 02:36:15;;;;;;;0.60;0.60;;;;;;;-4.41;87.31;101411.88;5050022;28;20431;-81
2023/01/24 02:38:46;;;;;;;0.90;0.90;;;;;;;-4.47;87.36;101425.41;5034461;28;20045;-82
2023/01/24 02:41:16;;;;;;;0.50;0.50;;;;;;;-4.49;87.51;101416.75;5052825;28;20063;-83
2023/01/24 02:43:46;;;;;;;0.70;0.70;;;;;;;-4.51;87.64;101426.50;5039643;28;20121;-81
2023/01/24 02:46:13;;;;;;;0.73;0.73;;;;;;;-4.51;87.65;101418.59;5092484;28;20055;-81
2023/01/24 02:48:40;;;;;;;0.63;0.63;;;;;;;-4.49;87.92;101422.00;5092826;28;20669;-81
2023/01/24 02:53:53;;;;;;;0.68;0.68;;;;;;;-4.46;87.91;101413.91;5092436;28;20113;-82
2023/01/24 02:59:05;;;;;;;0.68;0.68;;;;;;;-4.42;87.71;101399.63;5071454;28;20514;-80
2023/01/24 03:01:34;;;;;;;0.80;0.80;;;;;;;-4.38;87.88;101387.09;5069436;28;20076;-79
2023/01/24 03:04:02;;;;;;;0.80;0.80;;;;;;;-4.33;87.74;101389.47;5066962;28;20048;-81
2023/01/24 03:06:31;;;;;;;0.90;0.90;;;;;;;-4.37;87.38;101386.19;5051456;28;20053;-81
2023/01/24 03:08:59;;;;;;;0.63;0.63;;;;;;;-4.42;87.45;101391.72;5051746;28;20045;-82
2023/01/24 03:11:34;;;;;;;0.77;0.77;;;;;;;-4.40;87.68;101383.75;5051788;28;20072;-82
2023/01/24 03:36:19;;;;;;;0.80;0.80;;;;;;;-4.62;88.22;101371.78;5070774;28;20131;-80
2023/01/24 03:41:38;;;;;;;0.77;0.77;;;;;;;-4.64;88.75;101370.19;5087298;28;20048;-80
2023/01/24 03:44:05;;;;;;;0.80;0.80;;;;;;;-4.69;88.60;101354.63;5090402;28;20044;-79
2023/01/24 03:46:33;;;;;;;0.80;0.80;;;;;;;-4.70;88.47;101354.75;5071072;28;20051;-83
2023/01/24 03:49:00;;;;;;;0.60;0.60;;;;;;;-4.67;88.64;101358.03;5088557;28;20155;-83
2023/01/24 03:54:19;;;;;;;0.90;0.90;;;;;;;-4.79;89.15;101369.28;5066609;28;20130;-79
2023/01/24 03:57:02;;;;;;;0.70;0.70;;;;;;;-4.92;89.13;101361.22;5066617;28;20442;-79
2023/01/24 03:59:30;;;;;;;0.75;0.75;;;;;;;-4.82;89.25;101362.41;5066895;28;20497;-80
2023/01/24 04:01:57;;;;;;;0.75;0.75;;;;;;;-4.79;89.46;101356.09;5066516;28;20110;-80
2023/01/24 04:05:12;;;;;;;0.60;0.60;;;;;;;-4.74;89.05;101363.75;5066105;28;20155;-78
2023/01/24 04:07:18;;;;;;;0.90;0.90;;;;;;;-4.80;89.18;101357.91;5057582;28;20075;-80
2023/01/24 04:10:03;;;;;;;0.70;0.70;;;;;;;-4.74;89.11;101366.38;5050330;28;20057;-80
2023/01/24 04:12:36;;;;;;;0.60;0.60;;;;;;;-4.83;89.27;101352.81;5050306;28;20160;-80
2023/01/24 04:15:04;;;;;;;1.00;1.00;;;;;;;-4.76;89.17;101363.00;5060743;28;20138;-80
2023/01/24 04:17:33;;;;;;;0.80;0.80;;;;;;;-4.76;89.15;101355.09;5074714;28;20051;-80
2023/01/24 04:20:03;;;;;;;0.80;0.80;;;;;;;-4.73;89.51;101357.56;5061565;28;20084;-81
2023/01/24 04:22:30;;;;;;;0.85;0.85;;;;;;;-4.76;89.14;101349.81;5048804;28;20105;-80
2023/01/24 04:24:59;;;;;;;0.70;0.70;;;;;;;-4.76;88.98;101355.97;5065218;28;20415;-79
2023/01/24 04:27:31;;;;;;;1.00;1.00;;;;;;;-4.78;89.04;101349.91;5056623;28;20063;-78
2023/01/24 04:30:07;;;;;;;0.70;0.70;;;;;;;-4.77;89.01;101356.88;5049725;28;20124;-81
2023/01/24 04:32:36;;;;;;;0.80;0.80;;;;;;;-4.80;89.14;101357.06;5070285;28;20053;-80
2023/01/24 04:35:26;;;;;;;0.80;0.80;;;;;;;-4.85;89.31;101346.78;5079720;28;20063;-81
2023/01/24 04:38:00;;;;;;;0.80;0.80;;;;;;;-4.86;89.48;101354.75;5069438;28;20056;-82
2023/01/24 04:40:59;;;;;;;0.80;0.80;;;;;;;-4.98;89.57;101345.78;5066088;28;20083;-80
2023/01/24 04:43:31;;;;;;;0.80;0.80;;;;;;;-4.96;89.52;101357.09;5077698;28;20669;-81
2023/01/24 04:45:58;;;;;;;0.70;0.70;;;;;;;-5.10;89.63;101349.13;5051799;28;20049;-82
2023/01/24 04:48:42;;;;;;;0.90;0.90;;;;;;;-5.19;89.74;101354.88;5077677;28;20052;-81
2023/01/24 04:51:09;;;;;;;0.63;0.63;;;;;;;-5.28;90.38;101357.09;5077735;28;20099;-83
2023/01/24 04:53:40;;;;;;;0.75;0.75;;;;;;;-5.34;90.61;101356.59;5065439;28;20052;-82
2023/01/24 04:56:11;;;;;;;0.70;0.70;;;;;;;-5.42;90.70;101356.16;5046165;28;20138;-82
2023/01/24 04:58:38;;;;;;;0.70;0.70;;;;;;;-5.52;90.94;101354.06;5053284;28;20053;-81
2023/01/24 05:01:08;;;;;;;0.57;0.57;;;;;;;-5.61;91.40;101356.34;5065035;28;20048;-82
2023/01/24 05:03:46;;;;;;;0.75;0.75;;;;;;;-5.73;91.69;101356.03;5051455;28;20076;-81
2023/01/24 05:06:13;;;;;;;0.70;0.70;;;;;;;-5.79;92.09;101353.75;5051600;28;20053;-82
2023/01/24 05:08:40;;;;;;;0.63;0.63;;;;;;;-5.92;92.25;101342.19;5030921;28;20048;-82
2023/01/24 05:11:08;;;;;;;0.60;0.60;;;;;;;-5.89;92.77;101349.91;5056093;28;20270;-82
2023/01/24 05:13:42;;;;;;;0.80;0.80;;;;;;;-5.89;93.08;101344.66;5022924;28;20056;-83
2023/01/24 05:16:10;;;;;;;0.68;0.68;;;;;;;-5.90;92.97;101353.47;5056283;28;20388;-80
2023/01/24 05:18:38;;;;;;;0.80;0.80;;;;;;;-5.98;93.17;101345.16;5055924;28;20503;-80
2023/01/24 05:21:11;;;;;;;0.82;0.82;;;;;;;-5.99;93.50;101352.22;5049092;28;20049;-80
2023/01/24 05:23:39;;;;;;;0.77;0.77;;;;;;;-6.06;93.55;101342.94;5049025;28;20063;-81
2023/01/24 05:26:06;;;;;;;0.77;0.77;;;;;;;-6.07;93.92;101348.31;5049265;28;20053;-80
2023/01/24 05:28:34;;;;;;;0.80;0.80;;;;;;;-6.07;93.89;101343.88;5049664;28;20049;-78
2023/01/24 05:31:03;;;;;;;0.70;0.70;;;;;;;-6.11;94.04;101350.22;5065670;28;20040;-81
2023/01/24 05:33:31;;;;;;;0.70;0.70;;;;;;;-6.17;94.05;101340.88;5068671;28;20071;-80
2023/01/24 05:36:06;;;;;;;0.70;0.70;;;;;;;-6.18;94.21;101339.19;5070297;28;20056;-80
2023/01/24 05:38:36;;;;;;;0.68;0.68;;;;;;;-6.16;94.43;101342.56;5068680;28;20100;-81
2023/01/24 05:41:05;;;;;;;0.60;0.60;;;;;;;-6.16;94.83;101337.31;5069154;28;20044;-80
2023/01/24 05:43:34;;;;;;;0.60;0.60;;;;;;;-6.11;94.89;101339.72;5068899;28;20059;-79
2023/01/24 05:46:04;;;;;;;0.70;0.70;;;;;;;-6.09;94.93;101337.84;5068777;28;20501;-80
2023/01/24 05:48:36;;;;;;;0.80;0.80;;;;;;;-6.14;94.92;101337.25;5069202;28;20106;-80
2023/01/24 05:51:06;;;;;;;0.70;0.70;;;;;;;-6.11;94.83;101340.53;5069417;28;20475;-80
2023/01/24 05:53:35;;;;;;;0.80;0.80;;;;;;;-6.12;94.61;101335.38;5069294;28;20134;-81
2023/01/24 05:56:13;;;;;;;0.70;0.70;;;;;;;-6.17;94.99;101338.25;5070111;28;20076;-80
2023/01/24 05:58:41;;;;;;;0.80;0.80;;;;;;;-6.18;95.05;101323.44;5070076;28;20545;-80
2023/01/24 06:01:21;;;;;;;0.77;0.77;;;;;;;-6.06;95.13;101332.44;5069102;28;20048;-81
2023/01/24 06:03:51;;;;;;;0.60;0.60;;;;;;;-5.97;95.09;101337.22;5069359;28;20070;-80
2023/01/24 06:06:20;;;;;;;0.80;0.80;;;;;;;-5.84;94.79;101326.84;5068599;28;20077;-79
2023/01/24 06:08:51;;;;;;;0.80;0.80;;;;;;;-5.73;94.30;101324.47;5068874;28;20063;-82
2023/01/24 06:11:24;;;;;;;0.70;0.70;;;;;;;-5.61;94.04;101330.03;5068063;28;20048;-80
2023/01/24 06:14:03;;;;;;;0.80;0.80;;;;;;;-5.53;93.73;101322.56;5070131;28;20067;-80
2023/01/24 06:16:31;;;;;;;0.80;0.80;;;;;;;-5.42;93.41;101325.41;5072494;28;20499;-80
2023/01/24 06:18:59;;;;;;;0.90;0.90;;;;;;;-5.33;93.03;101326.72;5073749;28;20048;-80
2023/01/24 06:21:49;;;;;;;0.70;0.70;;;;;;;-5.28;92.45;101320.25;5074075;28;20053;-79
2023/01/24 06:24:26;;;;;;;;;;;;;;;-5.18;92.27;101328.47;5089807;28;20652;-81
2023/01/24 06:27:09;;;;;;;0.82;0.82;;;;;;;-5.10;91.66;101328.06;5073259;28;19924;-81
2023/01/24 06:29:36;;;;;;;0.80;0.80;;;;;;;-5.07;91.63;101317.34;5072261;28;20091;-81
2023/01/24 06:32:06;;;;;;;0.70;0.70;;;;;;;-4.93;91.45;101322.66;5073542;28;20136;-79
2023/01/24 06:34:41;;;;;;;0.70;0.70;;;;;;;-4.85;90.98;101323.06;5073563;28;20060;-80
2023/01/24 06:37:21;;;;;;;0.80;0.80;;;;;;;-4.78;90.61;101323.56;5073771;28;20147;-79
2023/01/24 06:39:52;;;;;;;0.77;0.77;;;;;;;-4.77;89.99;101314.72;5073692;28;20049;-80
2023/01/24 06:42:21;;;;;;;1.20;1.10;;;;;;;-4.74;90.00;101316.31;5055932;28;20515;-79
2023/01/24 06:44:48;;;;;;;0.90;0.90;;;;;;;-4.74;89.85;101316.31;5074283;28;20094;-78
2023/01/24 06:47:15;;;;;;;1.00;1.00;;;;;;;-4.81;89.76;101307.91;5073185;28;20055;-81
2023/01/24 06:49:43;;;;;;;0.80;0.80;;;;;;;-4.85;89.85;101307.25;5073470;28;20045;-80
2023/01/24 06:52:11;;;;;;;0.70;0.70;;;;;;;-4.88;89.82;101301.34;5073277;28;20345;-79
2023/01/24 06:54:38;;;;;;;0.70;0.70;;;;;;;-4.87;89.92;101303.88;5073304;28;20486;-81
2023/01/24 06:57:06;;;;;;;0.70;0.70;;;;;;;-4.87;89.90;101314.41;5073031;28;20126;-80
2023/01/24 06:59:33;;;;;;;0.90;0.90;;;;;;;-4.85;89.74;101309.91;5055742;28;20546;-79
2023/01/24 07:02:00;;;;;;;0.88;0.88;;;;;;;-4.83;89.90;101305.41;5073416;28;20612;-80
2023/01/24 07:04:27;;;;;;;0.73;0.73;;;;;;;-4.75;89.88;101307.59;5072934;28;20053;-81
2023/01/24 07:06:53;;;;;;;0.70;0.70;;;;;;;-4.70;89.51;101305.53;5073188;28;20048;-79
2023/01/24 07:09:21;;;;;;;0.63;0.63;;;;;;;-4.63;89.56;101313.94;5073086;28;20123;-80
2023/01/24 07:11:52;;;;;;;0.68;0.68;;;;;;;-4.44;88.94;101316.31;5073298;28;20114;-81
2023/01/24 07:14:19;;;;;;;0.98;0.98;;;;;;;-4.32;88.18;101310.31;5072587;28;20056;-80
2023/01/24 07:16:47;;;;;;;0.90;0.90;;;;;;;-4.15;87.86;101322.47;5072766;28;20071;-81
2023/01/24 07:19:17;;;;;;;0.98;0.98;;;;;;;-4.05;87.48;101318.34;5073109;28;20056;-80
2023/01/24 07:21:47;;;;;;;0.90;0.90;;;;;;;-3.96;86.87;101314.28;5073777;28;20075;-80
2023/01/24 07:24:17;;;;;;;0.98;0.98;;;;;;;-3.89;86.44;101309.47;5072475;28;20052;-80
2023/01/24 07:26:45;;;;;;;0.73;0.73;;;;;;;-3.81;86.08;101304.56;5089753;28;20068;-81
2023/01/24 07:29:12;;;;;;;0.80;0.80;;;;;;;-3.78;85.95;101312.28;5093181;28;20098;-81
2023/01/24 07:31:39;;;;;;;0.80;0.80;;;;;;;-3.88;85.17;101313.81;5093553;28;20056;-80
2023/01/24 07:34:06;;;;;;;0.70;0.70;;;;;;;-3.98;85.44;101309.09;5093955;28;20048;-80
2023/01/24 07:36:33;;;;;;;0.90;0.90;;;;;;;-4.02;85.67;101323.41;5093221;28;20052;-79
2023/01/24 07:39:01;;;;;;;0.52;0.52;;;;;;;-4.13;86.11;101310.03;5093430;28;20490;-81
2023/01/24 07:41:28;;;;;;;0.63;0.63;;;;;;;-4.14;86.40;101308.34;5092753;28;20048;-80
2023/01/24 07:43:58;;;;;;;0.80;0.80;;;;;;;-4.12;86.27;101317.00;5091499;28;20490;-80
2023/01/24 07:46:25;;;;;;;0.98;0.98;;;;;;;-4.08;86.28;101310.59;5092827;28;20056;-80
2023/01/24 07:48:52;;;;;;;0.80;0.80;;;;;;;-4.00;86.38;101313.63;5092984;28;20051;-80
2023/01/24 07:51:20;;;;;;;0.75;0.75;;;;;;;-4.03;86.16;101313.78;5091181;28;20085;-80
2023/01/24 07:53:47;;;;;;;0.80;0.80;;;;;;;-3.93;86.23;101311.44;5092405;28;20055;-79
2023/01/24 07:56:17;;;;;;;0.82;0.82;;;;;;;-3.84;85.97;101317.97;5092718;28;20048;-80
2023/01/24 07:58:51;;;;;;;0.80;0.80;;;;;;;-3.90;85.79;101311.25;5088940;28;20072;-79
2023/01/24 08:01:19;;;;;;;0.65;0.65;;;;;;;-3.92;85.39;101315.78;5072504;28;20063;-80
2023/01/24 08:03:49;;;;;;;0.80;0.80;;;;;;;-3.96;85.65;101311.63;5072685;28;20051;-80
2023/01/24 08:06:17;;;;;;;0.95;0.95;;;;;;;-3.93;85.73;101308.81;5072460;28;20242;-82
2023/01/24 08:08:44;;;;;;;0.77;0.77;;;;;;;-3.92;85.61;101316.63;5072433;28;20051;-80
2023/01/24 08:11:15;;;;;;;0.70;0.70;;;;;;;-3.94;85.82;101310.59;5072434;28;20048;-82
2023/01/24 08:13:43;;;;;;;0.70;0.70;;;;;;;-3.95;86.07;101311.56;5072262;28;20142;-80
2023/01/24 08:16:10;;;;;;;0.70;0.70;;;;;;;-3.89;86.08;101314.75;5072258;28;20052;-81
2023/01/24 08:18:38;;;;;;;0.63;0.63;;;;;;;-3.89;85.91;101320.03;5072629;28;20561;-80
2023/01/24 08:21:07;;;;;;;0.82;0.82;;;;;;;-3.79;85.85;101318.53;5072830;28;20056;-79
2023/01/24 08:23:35;;;;;;;0.98;0.98;;;;;;;-3.76;85.89;101315.69;5091956;28;20122;-80
2023/01/24 08:26:05;;;;;;;0.80;0.80;;;;;;;-3.64;85.78;101314.91;5092162;28;20048;-80
2023/01/24 08:28:33;;;;;;;0.75;0.75;;;;;;;-3.65;85.34;101300.00;5092293;28;20101;-82
2023/01/24 08:31:00;;;;;;;1.00;1.00;;;;;;;-3.64;85.07;101307.00;5092016;28;20044;-80
2023/01/24 08:33:27;;;;;;;0.80;0.80;;;;;;;-3.59;85.19;101293.53;5092213;28;20048;-80
2023/01/24 08:35:54;;;;;;;0.90;0.90;;;;;;;-3.52;85.27;101300.94;5089998;28;20120;-81
2023/01/24 08:38:22;;;;;;;0.80;0.80;;;;;;;-3.44;84.99;101291.66;5091873;28;20043;-80
2023/01/24 08:40:49;;;;;;;0.70;0.70;;;;;;;-3.51;84.84;101294.72;5092002;28;20513;-79
2023/01/24 08:43:17;;;;;;;0.70;0.70;;;;;;;-3.51;84.70;101288.59;5091251;28;20121;-80
2023/01/24 08:45:44;;;;;;;0.80;0.80;;;;;;;-3.46;84.58;101290.94;5091500;28;20517;-80
2023/01/24 08:48:11;;;;;;;0.77;0.77;;;;;;;-3.39;84.78;101286.94;5091711;28;20044;-80
2023/01/24 08:50:38;;;;;;;1.00;1.00;;;;;;;-3.35;84.41;101284.00;5090955;28;20052;-80
2023/01/24 08:53:05;;;;;;;0.88;0.88;;;;;;;-3.28;84.40;101281.81;5091144;28;20099;-80
2023/01/24 08:55:32;;;;;;;0.90;0.90;;;;;;;-3.11;83.97;101272.81;5090809;28;20151;-80
2023/01/24 08:58:04;;;;;;;1.10;1.10;;;;;;;-3.00;83.58;101272.94;5090925;28;20052;-81
2023/01/24 09:00:31;;;;;;;0.98;0.98;;;;;;;-2.96;83.14;101269.16;5070784;28;20595;-81
2023/01/24 09:03:00;;;;;;;1.00;1.00;;;;;;;-2.86;82.76;101272.00;5071012;28;20071;-83
2023/01/24 09:05:28;;;;;;;1.00;1.00;;;;;;;-2.84;82.65;101270.97;5070959;28;20599;-80
2023/01/24 09:07:56;;;;;;;0.90;0.90;;;;;;;-2.74;82.43;101260.63;5071871;28;20131;-81
2023/01/24 09:10:23;;;;;;;0.77;0.77;;;;;;;-2.62;82.03;101264.22;5071065;28;20127;-79
2023/01/24 09:12:50;;;;;;;1.02;1.02;;;;;;;-2.57;81.70;101253.34;5071728;28;20068;-81
2023/01/24 09:15:17;;;;;;;0.80;0.80;;;;;;;-2.67;81.61;101253.13;5069687;28;20101;-79
2023/01/24 09:17:45;;;;;;;0.70;0.70;;;;;;;-2.51;81.79;101256.41;5074780;28;20124;-81
2023/01/24 09:20:12;;;;;;;0.90;0.90;;;;;;;-2.43;81.40;101247.94;5091587;28;20056;-80
2023/01/24 09:22:40;;;;;;;0.95;0.95;;;;;;;-2.42;81.14;101250.50;5091016;28;20080;-81
2023/01/24 09:25:08;;;;;;;0.80;0.80;;;;;;;-2.36;80.84;101251.03;5091088;28;20059;-81
2023/01/24 09:27:36;;;;;;;0.90;0.90;;;;;;;-2.37;81.17;101236.94;5090540;28;20423;-80
2023/01/24 09:30:05;;;;;;;0.90;0.90;;;;;;;-2.30;80.89;101246.16;5090830;28;20463;-80
2023/01/24 09:32:32;;;;;;;1.00;1.00;;;;;;;-2.22;81.05;101243.81;5090500;28;20117;-80
2023/01/24 09:34:59;;;;;;;0.68;0.68;;;;;;;-2.15;80.32;101238.09;5090693;28;20044;-81
2023/01/24 09:37:26;;;;;;;1.00;1.00;;;;;;;-2.23;79.98;101244.78;5090277;28;20497;-80
2023/01/24 09:39:55;;;;;;;1.00;1.00;;;;;;;-2.20;80.76;101236.63;5094137;28;20043;-81
2023/01/24 09:42:27;;;;;;;0.85;0.85;;;;;;;-2.09;80.68;101230.56;5093077;28;20401;-80
2023/01/24 09:45:10;;;;;;;0.80;0.80;;;;;;;-2.16;80.30;101239.91;5089966;28;20048;-81
2023/01/24 09:48:02;;;;;;;1.00;1.00;;;;;;;-2.32;79.64;101229.53;5072185;28;20418;-80
2023/01/24 09:50:45;;;;;;;0.82;0.82;;;;;;;-2.39;80.35;101228.28;5090182;28;20079;-81
2023/01/24 09:53:21;;;;;;;0.73;0.73;;;;;;;-2.47;80.26;101235.91;5089639;28;20048;-79
2023/01/24 09:55:49;;;;;;;0.93;0.93;;;;;;;-2.52;80.94;101235.38;5077766;28;20049;-80
2023/01/24 09:58:39;;;;;;;0.90;0.90;;;;;;;-2.41;81.02;101230.16;5049658;28;20049;-78
2023/01/24 10:01:12;;;;;;;1.00;1.00;;;;;;;-2.40;81.14;101243.31;5049367;28;20083;-79
2023/01/24 10:03:40;;;;;;;0.60;0.60;;;;;;;-2.38;81.04;101224.69;5050357;28;20048;-80
2023/01/24 10:06:22;;;;;;;1.00;1.00;;;;;;;-2.40;80.81;101229.25;5049207;28;20071;-80
2023/01/24 10:08:52;;;;;;;0.90;0.90;;;;;;;-2.31;81.26;101214.50;5052299;28;20517;-81
2023/01/24 10:11:37;;;;;;;0.70;0.70;;;;;;;-2.24;80.86;101216.63;5050727;28;20052;-81
2023/01/24 10:14:30;;;;;;;1.08;1.08;;;;;;;-2.23;80.80;101213.03;5061284;28;20071;-80
2023/01/24 10:17:22;;;;;;;1.08;1.08;;;;;;;-2.23;80.39;101204.22;5090241;28;20048;-80
2023/01/24 10:20:10;;;;;;;0.98;0.98;;;;;;;-2.20;80.13;101207.53;5090286;28;20127;-81
2023/01/24 10:23:04;;;;;;;0.98;0.98;;;;;;;-2.24;80.20;101203.41;5089999;28;20064;-80
2023/01/24 10:26:10;;;;;;;1.00;1.00;;;;;;;-2.14;80.28;101208.03;5089933;28;20181;-81
2023/01/24 10:28:40;;;;;;;0.82;0.82;;;;;;;-2.09;80.07;101198.81;5027540;28;20045;-81
2023/01/24 10:31:12;;;;;;;0.90;0.90;;;;;;;-2.13;79.73;101197.34;5028087;28;20072;-81
2023/01/24 10:33:49;;;;;;;0.90;0.90;;;;;;;-2.15;79.94;101195.75;5011490;28;20045;-81
2023/01/24 10:36:30;;;;;;;0.90;0.90;;;;;;;-2.25;79.87;101191.13;5027182;28;20065;-81
2023/01/24 10:38:57;;;;;;;1.00;1.00;;;;;;;-2.34;79.82;101189.13;5027759;28;20076;-80
2023/01/24 10:41:26;;;;;;;0.65;0.65;;;;;;;-2.41;80.31;101186.06;5027260;28;20054;-80
2023/01/24 10:44:02;;;;;;;0.90;0.90;;;;;;;-2.43;80.77;101179.19;5027187;28;20091;-82
2023/01/24 10:46:48;;;;;;;1.00;1.00;;;;;;;-2.38;80.62;101178.88;5026678;28;20177;-82
2023/01/24 10:49:20;;;;;;;1.00;1.00;;;;;;;-2.39;80.56;101167.44;5010421;28;20049;-79
2023/01/24 10:52:07;;;;;;;1.00;1.00;;;;;;;-2.32;80.52;101168.72;5021083;28;20061;-81
2023/01/24 10:54:43;;;;;;;1.00;1.00;;;;;;;-2.41;80.28;101156.13;4974948;28;20050;-81
2023/01/24 10:57:58;;;;;;;0.80;0.80;;;;;;;-2.41;80.46;101156.13;5007547;28;20394;-80
2023/01/24 11:00:35;;;;;;;0.98;0.98;;;;;;;-2.33;80.67;101151.16;4950513;28;20130;-79
2023/01/24 11:03:18;;;;;;;0.70;0.70;;;;;;;-2.27;80.53;101148.06;4952921;29;20055;-81
2023/01/24 11:05:54;;;;;;;0.80;0.80;;;;;;;-2.26;80.16;101143.63;5023608;28;20165;-80
2023/01/24 11:08:24;;;;;;;1.00;1.00;;;;;;;-2.24;80.10;101141.72;5023334;28;20053;-80
2023/01/24 11:10:54;;;;;;;0.85;0.85;;;;;;;-2.27;79.95;101134.00;5027953;28;20057;-78
2023/01/24 11:13:36;;;;;;;1.00;1.00;;;;;;;-2.21;80.10;101142.31;5021618;28;20050;-79
2023/01/24 11:16:05;;;;;;;1.00;1.00;;;;;;;-2.15;80.04;101140.19;5014102;28;20092;-80
2023/01/24 11:18:33;;;;;;;0.90;0.90;;;;;;;-2.15;79.82;101135.78;5014168;28;20870;-80
2023/01/24 11:21:09;;;;;;;0.82;0.82;;;;;;;-2.16;80.08;101128.78;4998046;28;20055;-80
2023/01/24 11:23:36;;;;;;;0.77;0.77;;;;;;;-2.15;80.11;101127.84;5029918;28;20064;-78
2023/01/24 11:26:05;;;;;;;0.80;0.80;;;;;;;-2.17;79.98;101121.81;5021866;28;20077;-79
2023/01/24 11:28:35;;;;;;;0.90;0.90;;;;;;;-2.11;79.74;101116.06;5022446;28;20061;-79
2023/01/24 11:31:22;;;;;;;1.00;1.00;;;;;;;-2.09;79.77;101111.50;5021454;28;20133;-77
2023/01/24 11:34:03;;;;;;;1.00;1.00;;;;;;;-2.06;79.44;101108.63;5003517;28;20089;-79
2023/01/24 11:36:41;;;;;;;1.00;1.00;;;;;;;-2.03;79.56;101112.84;5033431;28;20560;-79
2023/01/24 11:39:36;;;;;;;0.85;0.85;;;;;;;-1.97;79.40;101115.91;5084096;28;20426;-79
2023/01/24 11:42:16;;;;;;;0.93;0.93;;;;;;;-1.96;79.23;101114.09;5060701;28;20135;-79
2023/01/24 11:45:21;;;;;;;1.00;1.00;;;;;;;-1.86;79.26;101111.63;5066961;28;20044;-79
2023/01/24 11:48:07;;;;;;;1.00;1.00;;;;;;;-1.87;78.74;101100.22;5066905;28;20052;-79
2023/01/24 11:50:43;;;;;;;1.00;1.00;;;;;;;-1.89;78.86;101109.22;5071937;28;20044;-79
2023/01/24 11:53:20;;;;;;;0.90;0.90;;;;;;;-1.93;79.09;101103.28;5071999;28;20110;-78
2023/01/24 11:56:09;;;;;;;1.05;1.05;;;;;;;-1.83;79.64;101098.16;5069179;28;20052;-77
2023/01/24 11:59:14;;;;;;;1.00;1.00;;;;;;;-1.78;79.22;101096.84;5055724;28;20056;-80
2023/01/24 12:02:20;;;;;;;0.80;0.80;;;;;;;-1.73;79.14;101087.75;5060750;28;20044;-79
2023/01/24 12:05:06;;;;;;;0.80;0.80;;;;;;;-1.78;78.71;101088.91;5060119;28;20475;-79
2023/01/24 12:07:49;;;;;;;0.88;0.88;;;;;;;-1.76;79.00;101092.31;5055343;28;20491;-78
2023/01/24 12:10:55;;;;;;;0.80;0.80;;;;;;;-1.76;79.34;101084.34;5057417;28;20044;-79
2023/01/24 12:14:00;;;;;;;0.90;0.90;;;;;;;-1.77;79.14;101080.03;5061111;28;20053;-79
2023/01/24 12:17:23;;;;;;;1.00;1.00;;;;;;;-1.78;79.38;101080.13;5058558;28;20051;-80
2023/01/24 12:20:13;;;;;;;0.80;0.80;;;;;;;-1.80;79.74;101080.28;4979767;28;20395;-79
2023/01/24 12:23:01;;;;;;;0.90;0.90;;;;;;;-1.83;79.67;101066.41;4979096;28;20054;-79
2023/01/24 12:25:33;;;;;;;1.00;1.00;;;;;;;-1.87;79.70;101071.09;4978156;28;20449;-78